Time;durP1;ratioP1;P1;durP2;ratioP2;P2;SDS_P1;SDS_P2;PMS_P1;PMS_P2;Temp;Humidity;BMP_temperature;BMP_pressure;BME280_temperature;BME280_humidity;BME280_pressure;Samples;Min_cycle;Max_cycle;Signal;HPM_P1;HPM_P2
2022/04/19 00:00:44;;;;;;;8.50;6.00;;;25.90;94.70;;;;;;5086570;28;20028;-51
2022/04/19 00:03:14;;;;;;;9.40;6.05;;;25.90;94.70;;;;;;5086427;28;20355;-57
2022/04/19 00:05:41;;;;;;;7.38;5.57;;;25.90;94.70;;;;;;5086583;28;20047;-48
2022/04/19 00:08:10;;;;;;;8.85;5.88;;;25.90;94.70;;;;;;5086188;28;20035;-52
2022/04/19 00:10:38;;;;;;;8.52;6.22;;;25.90;94.70;;;;;;5086248;28;20216;-52
2022/04/19 00:13:05;;;;;;;8.43;6.00;;;25.90;94.70;;;;;;5085930;28;20027;-51
2022/04/19 00:15:32;;;;;;;8.70;6.05;;;25.90;94.70;;;;;;5085900;28;20316;-52
2022/04/19 00:18:01;;;;;;;7.30;6.05;;;25.90;94.70;;;;;;5086192;28;20032;-51
2022/04/19 00:20:30;;;;;;;8.68;5.72;;;25.90;94.70;;;;;;5086133;28;20312;-54
2022/04/19 00:22:58;;;;;;;9.32;5.88;;;25.90;94.70;;;;;;5086047;28;20021;-57
2022/04/19 00:25:25;;;;;;;11.18;5.93;;;25.90;94.70;;;;;;5086345;28;20044;-50
2022/04/19 00:27:52;;;;;;;8.38;5.88;;;25.90;94.60;;;;;;5085376;28;20016;-54
2022/04/19 00:30:19;;;;;;;9.85;6.38;;;25.90;94.60;;;;;;5086171;28;20083;-55
2022/04/19 00:32:46;;;;;;;9.77;6.18;;;25.90;94.60;;;;;;5085700;28;20039;-59
2022/04/19 00:35:13;;;;;;;8.55;5.80;;;25.90;94.60;;;;;;5085787;28;20033;-53
2022/04/19 00:37:41;;;;;;;9.50;6.38;;;25.90;94.60;;;;;;5085094;28;20028;-53
2022/04/19 00:40:09;;;;;;;10.00;5.78;;;25.90;94.60;;;;;;5085965;28;20033;-51
2022/04/19 00:42:36;;;;;;;9.23;6.30;;;25.90;94.60;;;;;;5085657;28;20073;-51
2022/04/19 00:45:06;;;;;;;9.77;6.22;;;25.90;94.60;;;;;;5086002;28;20034;-51
2022/04/19 00:47:34;;;;;;;8.85;6.00;;;25.90;94.60;;;;;;5085570;28;20066;-50
2022/04/19 00:50:02;;;;;;;8.93;6.07;;;25.90;94.60;;;;;;5085841;28;20090;-52
2022/04/19 00:52:30;;;;;;;8.00;6.05;;;25.90;94.50;;;;;;5085385;28;20020;-51
2022/04/19 00:54:58;;;;;;;10.88;6.38;;;25.90;94.50;;;;;;5085141;28;20049;-54
2022/04/19 00:57:25;;;;;;;7.93;5.63;;;25.90;94.50;;;;;;5085152;28;20058;-49
2022/04/19 00:59:56;;;;;;;9.10;5.55;;;25.90;94.50;;;;;;5085104;28;20077;-53
2022/04/19 01:02:26;;;;;;;8.95;5.55;;;25.90;94.50;;;;;;5085188;28;20039;-53
2022/04/19 01:04:55;;;;;;;9.02;4.85;;;25.90;94.50;;;;;;5084943;28;20020;-53
2022/04/19 01:07:22;;;;;;;9.82;3.70;;;25.90;94.40;;;;;;5089224;28;20036;-60
2022/04/19 01:09:48;;;;;;;8.40;3.30;;;25.80;94.50;;;;;;5090691;28;20036;-55
2022/04/19 01:15:08;;;;;;;4.45;1.95;;;25.70;94.80;;;;;;5084652;28;20082;-57
2022/04/19 01:17:40;;;;;;;9.17;2.67;;;25.60;94.80;;;;;;5084286;28;20201;-54
2022/04/19 01:20:12;;;;;;;7.93;2.53;;;25.60;94.70;;;;;;5084732;28;20037;-53
2022/04/19 01:22:40;;;;;;;;;;;25.50;94.60;;;;;;5084561;28;20300;-54
2022/04/19 01:25:10;;;;;;;9.63;2.30;;;25.50;94.80;;;;;;5084456;28;19912;-56
2022/04/19 01:27:37;;;;;;;7.70;2.13;;;25.50;94.80;;;;;;5084091;28;20339;-54
2022/04/19 01:30:08;;;;;;;10.98;2.28;;;25.40;94.80;;;;;;5084579;28;20031;-57
2022/04/19 01:32:35;;;;;;;7.43;2.15;;;25.40;94.90;;;;;;5083893;28;20094;-57
2022/04/19 01:35:11;;;;;;;8.18;2.10;;;25.40;95.00;;;;;;5084916;28;20036;-54
2022/04/19 01:37:39;;;;;;;10.45;2.33;;;25.30;95.00;;;;;;5091884;28;20066;-51
2022/04/19 01:40:18;;;;;;;7.78;1.88;;;25.30;95.10;;;;;;5084364;28;20036;-52
2022/04/19 01:42:53;;;;;;;7.13;2.10;;;25.30;95.30;;;;;;5097790;28;20015;-57
2022/04/19 01:45:23;;;;;;;5.80;1.88;;;25.40;95.40;;;;;;5090843;28;20058;-54
2022/04/19 01:47:53;;;;;;;7.97;2.00;;;25.40;95.30;;;;;;5095471;28;20193;-56
2022/04/19 01:50:21;;;;;;;7.10;1.83;;;25.40;95.30;;;;;;5096032;28;20032;-55
2022/04/19 01:52:50;;;;;;;6.38;1.80;;;25.40;95.20;;;;;;5084208;28;20021;-52
2022/04/19 01:55:19;;;;;;;5.82;1.75;;;25.40;95.20;;;;;;5098090;28;20269;-52
2022/04/19 01:57:52;;;;;;;5.43;1.60;;;25.40;95.20;;;;;;5089560;28;20028;-55
2022/04/19 02:00:21;;;;;;;7.10;2.08;;;25.40;95.00;;;;;;5084253;28;20077;-54
2022/04/19 02:02:49;;;;;;;6.65;1.88;;;25.40;95.00;;;;;;5093227;28;20208;-55
2022/04/19 02:05:16;;;;;;;7.50;1.83;;;25.40;95.00;;;;;;5084293;28;20056;-58
2022/04/19 02:07:45;;;;;;;8.73;1.92;;;25.40;95.00;;;;;;5089643;28;20031;-61
2022/04/19 02:10:13;;;;;;;8.07;2.13;;;25.40;94.80;;;;;;5092428;28;20024;-57
2022/04/19 02:12:41;;;;;;;3.53;1.65;;;25.30;94.60;;;;;;5096522;28;20016;-54
2022/04/19 02:15:09;;;;;;;7.47;1.60;;;25.30;94.70;;;;;;5096746;28;20024;-55
2022/04/19 02:17:44;;;;;;;5.60;1.50;;;25.30;94.80;;;;;;5104122;28;20319;-62
2022/04/19 02:20:11;;;;;;;9.27;1.92;;;25.30;94.70;;;;;;5105816;28;20027;-57
2022/04/19 02:22:39;;;;;;;8.35;1.65;;;25.30;94.60;;;;;;5097190;28;20372;-54
2022/04/19 02:25:07;;;;;;;4.90;1.35;;;25.30;94.50;;;;;;5087702;28;20262;-54
2022/04/19 02:27:33;;;;;;;7.40;1.23;;;25.30;94.70;;;;;;5100384;28;20028;-54
2022/04/19 02:30:05;;;;;;;7.88;1.67;;;25.30;94.50;;;;;;5087766;28;20109;-55
2022/04/19 02:32:33;;;;;;;7.40;1.50;;;25.30;94.40;;;;;;5098663;28;20026;-57
2022/04/19 02:35:00;;;;;;;9.05;1.50;;;25.30;94.20;;;;;;5107887;28;20047;-51
2022/04/19 02:37:28;;;;;;;8.88;1.40;;;25.20;94.30;;;;;;5104451;28;20051;-55
2022/04/19 02:39:55;;;;;;;7.30;1.90;;;25.30;94.40;;;;;;5102959;28;20024;-60
2022/04/19 02:42:21;;;;;;;10.90;1.67;;;25.30;94.30;;;;;;5107339;28;20020;-56
2022/04/19 02:44:48;;;;;;;6.18;1.30;;;25.20;94.30;;;;;;5107846;28;20036;-58
2022/04/19 02:47:16;;;;;;;8.63;1.83;;;25.20;94.50;;;;;;5107084;28;20027;-56
2022/04/19 02:49:46;;;;;;;10.63;1.60;;;25.10;94.50;;;;;;5095768;28;20154;-55
2022/04/19 02:52:13;;;;;;;11.82;1.60;;;25.10;94.60;;;;;;5089294;28;20336;-61
2022/04/19 02:54:40;;;;;;;7.35;1.30;;;25.20;94.70;;;;;;5098346;28;20044;-54
2022/04/19 02:57:07;;;;;;;6.90;1.42;;;25.20;94.70;;;;;;5100852;28;20036;-56
2022/04/19 02:59:35;;;;;;;6.32;1.90;;;25.20;94.70;;;;;;5098805;28;20079;-58
2022/04/19 03:02:02;;;;;;;6.97;1.42;;;25.20;94.70;;;;;;5102424;28;20034;-56
2022/04/19 03:04:29;;;;;;;6.90;1.30;;;25.20;94.70;;;;;;5101152;28;20320;-53
2022/04/19 03:06:55;;;;;;;3.17;1.20;;;25.20;94.70;;;;;;5094631;28;20032;-55
2022/04/19 03:09:22;;;;;;;5.20;1.40;;;25.10;94.70;;;;;;5094334;28;20362;-54
2022/04/19 03:11:48;;;;;;;8.80;1.20;;;25.20;94.70;;;;;;5086582;28;20023;-58
2022/04/19 03:14:17;;;;;;;6.13;1.40;;;25.10;94.70;;;;;;5086741;28;20054;-57
2022/04/19 03:16:43;;;;;;;6.70;1.42;;;25.10;94.60;;;;;;5086383;28;20335;-56
2022/04/19 03:27:41;;;;;;;4.25;1.48;;;25.10;94.30;;;;;;5086461;28;20016;-55
2022/04/19 03:28:03;;;;;;;16.88;12.77;;;25.10;94.10;;;;;;5085752;28;20259;-57
2022/04/19 03:30:30;;;;;;;14.27;8.00;;;25.10;94.20;;;;;;5085460;28;20012;-53
2022/04/19 03:32:56;;;;;;;12.93;7.90;;;25.10;94.00;;;;;;5086450;28;20122;-57
2022/04/19 03:35:23;;;;;;;13.82;10.77;;;25.10;94.10;;;;;;5097573;28;20087;-54
2022/04/19 03:37:50;;;;;;;14.52;12.70;;;25.10;93.90;;;;;;5106578;28;20054;-55
2022/04/19 03:40:16;;;;;;;15.43;11.05;;;25.10;93.80;;;;;;5107042;28;20043;-54
2022/04/19 03:42:43;;;;;;;12.30;8.55;;;25.10;93.80;;;;;;5106329;28;20208;-53
2022/04/19 03:45:11;;;;;;;10.48;6.75;;;25.10;93.90;;;;;;5106574;28;20020;-57
2022/04/19 03:47:38;;;;;;;8.32;4.53;;;25.00;94.00;;;;;;5106146;28;20024;-53
2022/04/19 03:50:06;;;;;;;12.25;4.10;;;25.10;93.90;;;;;;5106727;28;20032;-55
2022/04/19 03:52:35;;;;;;;7.28;2.47;;;25.10;93.90;;;;;;5106099;28;20062;-60
2022/04/19 03:55:02;;;;;;;8.77;2.05;;;25.00;93.90;;;;;;5105944;28;20044;-57
2022/04/19 03:57:29;;;;;;;9.23;1.98;;;25.00;93.80;;;;;;5104943;28;20023;-58
2022/04/19 03:59:55;;;;;;;11.90;1.52;;;25.00;93.90;;;;;;5099063;28;20087;-57
2022/04/19 04:02:22;;;;;;;6.80;1.20;;;25.00;93.80;;;;;;5086024;28;20036;-55
2022/04/19 04:04:48;;;;;;;5.15;1.17;;;25.00;93.80;;;;;;5086130;28;20050;-54
2022/04/19 04:07:15;;;;;;;6.82;1.10;;;24.90;93.80;;;;;;5085601;28;20343;-56
2022/04/19 04:09:42;;;;;;;7.00;1.10;;;24.90;93.80;;;;;;5085937;28;20107;-58
2022/04/19 04:12:11;;;;;;;7.43;1.05;;;24.90;93.90;;;;;;5085595;28;20371;-56
2022/04/19 04:14:39;;;;;;;5.65;1.10;;;25.00;94.00;;;;;;5085659;28;20028;-54
2022/04/19 04:17:06;;;;;;;6.78;0.90;;;24.90;93.80;;;;;;5085403;28;20020;-52
2022/04/19 04:19:33;;;;;;;7.28;1.13;;;24.90;93.80;;;;;;5085610;28;20075;-53
2022/04/19 04:22:00;;;;;;;11.52;1.17;;;25.00;94.00;;;;;;5085236;28;20197;-56
2022/04/19 04:24:27;;;;;;;8.55;0.93;;;25.00;94.10;;;;;;5085495;28;20138;-54
2022/04/19 04:26:54;;;;;;;7.28;0.85;;;25.00;94.10;;;;;;5085223;28;20376;-53
2022/04/19 04:29:22;;;;;;;6.30;0.80;;;25.00;94.10;;;;;;5085289;28;20028;-54
2022/04/19 04:31:48;;;;;;;10.20;1.20;;;25.00;94.00;;;;;;5085075;28;20036;-54
2022/04/19 04:34:15;;;;;;;7.60;0.90;;;25.00;94.10;;;;;;5085138;28;20114;-57
2022/04/19 04:36:41;;;;;;;6.35;1.10;;;24.90;94.20;;;;;;5084948;28;20013;-56
2022/04/19 04:39:08;;;;;;;12.57;1.30;;;25.00;94.30;;;;;;5084212;28;20056;-54
2022/04/19 04:41:35;;;;;;;3.53;0.85;;;25.00;94.40;;;;;;5084926;28;20016;-53
2022/04/19 04:44:01;;;;;;;4.78;1.00;;;24.90;94.50;;;;;;5084940;28;20029;-56
2022/04/19 04:51:57;;;;;;;6.95;1.38;;;25.00;94.60;;;;;;5084752;28;20036;-53
2022/04/19 04:54:24;;;;;;;8.30;1.30;;;25.00;94.70;;;;;;5084374;28;20111;-56
2022/04/19 04:56:50;;;;;;;6.53;1.23;;;24.90;94.70;;;;;;5084467;28;20255;-57
2022/04/19 04:59:17;;;;;;;8.27;1.10;;;25.00;95.00;;;;;;5084868;28;20066;-54
2022/04/19 05:01:44;;;;;;;7.13;1.20;;;24.90;94.80;;;;;;5084679;28;20051;-52
2022/04/19 05:04:10;;;;;;;10.25;1.52;;;24.90;94.90;;;;;;5084560;28;20037;-53
2022/04/19 05:06:37;;;;;;;7.10;1.30;;;24.90;94.90;;;;;;5084681;28;20055;-58
2022/04/19 05:09:03;;;;;;;7.15;1.30;;;24.90;95.00;;;;;;5085074;28;20032;-54
2022/04/19 05:11:30;;;;;;;6.95;1.23;;;24.90;94.90;;;;;;5084186;28;20434;-53
2022/04/19 05:13:57;;;;;;;11.52;1.30;;;24.90;95.00;;;;;;5084592;28;20024;-55
2022/04/19 05:16:24;;;;;;;6.63;1.13;;;24.90;95.00;;;;;;5084294;28;20066;-53
2022/04/19 05:18:50;;;;;;;6.15;0.95;;;24.90;95.00;;;;;;5090633;28;20032;-54
2022/04/19 05:21:17;;;;;;;7.20;1.08;;;24.90;95.00;;;;;;5104486;28;20008;-55
2022/04/19 05:23:43;;;;;;;7.82;0.98;;;24.90;94.90;;;;;;5104765;28;20223;-53
2022/04/19 05:26:10;;;;;;;9.27;1.00;;;24.90;94.90;;;;;;5104320;28;20032;-55
2022/04/19 05:28:37;;;;;;;4.00;1.00;;;24.90;94.90;;;;;;5099968;28;20027;-59
2022/04/19 05:31:03;;;;;;;9.23;1.13;;;24.90;94.80;;;;;;5084587;28;20295;-57
2022/04/19 05:33:30;;;;;;;7.70;0.98;;;24.90;94.70;;;;;;5083921;28;20097;-54
2022/04/19 05:35:57;;;;;;;8.57;1.25;;;24.90;94.90;;;;;;5084155;28;20016;-59
2022/04/19 05:38:25;;;;;;;5.55;0.90;;;24.90;94.80;;;;;;5084395;28;20024;-56
2022/04/19 05:40:52;;;;;;;7.60;0.90;;;24.90;94.70;;;;;;5084068;28;20205;-53
2022/04/19 05:43:18;;;;;;;7.82;1.10;;;24.90;94.80;;;;;;5084331;28;20025;-53
2022/04/19 05:45:46;;;;;;;7.13;1.08;;;24.90;94.80;;;;;;5103595;28;20031;-62
2022/04/19 05:48:13;;;;;;;6.32;1.17;;;24.90;94.80;;;;;;5103980;28;20093;-56
2022/04/19 05:50:40;;;;;;;5.72;1.00;;;24.90;94.90;;;;;;5104475;28;20254;-57
2022/04/19 05:53:06;;;;;;;8.38;1.13;;;24.90;95.00;;;;;;5104120;28;20371;-57
2022/04/19 05:55:33;;;;;;;6.40;1.10;;;24.90;94.90;;;;;;5104134;28;20108;-54
2022/04/19 05:58:00;;;;;;;5.43;1.00;;;24.90;95.00;;;;;;5104023;28;20091;-55
2022/04/19 06:00:27;;;;;;;6.22;1.17;;;24.90;95.00;;;;;;5104635;28;20021;-56
2022/04/19 06:05:39;;;;;;;6.80;0.77;;;24.80;94.90;;;;;;5104087;28;20031;-53
2022/04/19 06:08:06;;;;;;;6.07;0.88;;;24.80;95.00;;;;;;5104301;28;20032;-61
2022/04/19 06:10:32;;;;;;;6.47;0.93;;;24.80;95.10;;;;;;5104343;28;20020;-56
2022/04/19 06:12:59;;;;;;;6.63;1.02;;;24.90;95.00;;;;;;5103994;28;20040;-61
2022/04/19 06:15:25;;;;;;;5.25;0.95;;;24.80;94.90;;;;;;5104518;28;20080;-60
2022/04/19 06:17:52;;;;;;;6.85;1.10;;;24.90;95.00;;;;;;5103773;28;20016;-58
2022/04/19 06:20:18;;;;;;;10.00;1.02;;;24.90;94.80;;;;;;5104398;28;20023;-56
2022/04/19 06:22:45;;;;;;;7.32;0.73;;;24.80;94.70;;;;;;5103828;28;20028;-55
2022/04/19 06:25:12;;;;;;;8.15;1.00;;;24.80;94.80;;;;;;5104424;28;20263;-58
2022/04/19 06:27:39;;;;;;;5.90;1.20;;;24.80;94.80;;;;;;5095357;28;20028;-53
2022/04/19 06:30:07;;;;;;;7.10;1.25;;;24.80;94.90;;;;;;5087707;28;20024;-57
2022/04/19 06:32:33;;;;;;;8.77;1.17;;;24.90;94.90;;;;;;5083552;28;20016;-55
2022/04/19 06:35:00;;;;;;;12.05;1.20;;;24.80;94.90;;;;;;5083829;28;20039;-56
2022/04/19 06:37:29;;;;;;;12.75;1.30;;;24.80;94.90;;;;;;5083592;28;20221;-58
2022/04/19 06:40:09;;;;;;;9.25;1.05;;;24.80;94.90;;;;;;5083744;28;20025;-57
2022/04/19 06:42:36;;;;;;;13.30;1.08;;;24.80;95.00;;;;;;5083454;28;20028;-57
2022/04/19 06:45:04;;;;;;;12.93;1.13;;;24.80;94.90;;;;;;5084003;28;20051;-55
2022/04/19 06:47:30;;;;;;;13.75;1.17;;;24.80;94.90;;;;;;5083525;28;20172;-55
2022/04/19 06:49:57;;;;;;;6.63;0.90;;;24.80;94.90;;;;;;5083938;28;20041;-54
2022/04/19 06:52:25;;;;;;;12.20;1.23;;;24.80;94.90;;;;;;5083173;28;20027;-54
2022/04/19 06:54:51;;;;;;;7.55;0.80;;;24.80;94.80;;;;;;5083070;28;20045;-54
2022/04/19 06:57:18;;;;;;;8.77;1.10;;;24.80;94.90;;;;;;5083392;28;20028;-52
2022/04/19 06:59:46;;;;;;;9.77;1.20;;;24.80;94.90;;;;;;5083541;28;20293;-56
2022/04/19 07:02:13;;;;;;;6.45;1.00;;;24.80;94.90;;;;;;5085357;28;20309;-56
2022/04/19 07:04:41;;;;;;;10.43;1.25;;;24.80;94.80;;;;;;5087551;28;20043;-55
2022/04/19 07:07:10;;;;;;;8.93;1.10;;;24.80;94.80;;;;;;5086935;28;20058;-57
2022/04/19 07:09:37;;;;;;;7.35;1.10;;;24.80;94.90;;;;;;5087350;28;20028;-55
2022/04/19 07:12:05;;;;;;;8.35;1.20;;;24.70;94.90;;;;;;5086721;28;20032;-56
2022/04/19 07:14:31;;;;;;;6.63;0.90;;;24.70;95.00;;;;;;5087192;28;20069;-54
2022/04/19 07:16:58;;;;;;;9.48;1.38;;;24.80;95.00;;;;;;5087435;28;20028;-60
2022/04/19 07:19:25;;;;;;;11.23;1.20;;;24.70;94.90;;;;;;5087343;28;20033;-56
2022/04/19 07:27:21;;;;;;;5.57;0.90;;;24.70;94.90;;;;;;5086864;28;20035;-55
2022/04/19 07:29:48;;;;;;;4.47;0.90;;;24.70;94.90;;;;;;5086970;28;20305;-56
2022/04/19 07:32:15;;;;;;;7.80;1.23;;;24.60;95.00;;;;;;5086535;28;20255;-57
2022/04/19 07:34:41;;;;;;;8.30;1.48;;;24.60;95.00;;;;;;5086466;28;20029;-54
2022/04/19 07:37:08;;;;;;;10.98;1.38;;;24.60;94.90;;;;;;5086656;28;20339;-58
2022/04/19 07:39:34;;;;;;;7.47;1.35;;;24.60;95.10;;;;;;5086585;28;20032;-56
2022/04/19 07:42:01;;;;;;;6.88;1.42;;;24.60;94.80;;;;;;5086164;28;20013;-54
2022/04/19 07:44:31;;;;;;;7.70;1.15;;;24.60;94.80;;;;;;5086918;28;20293;-55
2022/04/19 07:46:57;;;;;;;8.50;1.27;;;24.60;94.80;;;;;;5086233;28;20036;-59
2022/04/19 07:49:24;;;;;;;10.68;1.65;;;24.60;94.80;;;;;;5086531;28;20025;-57
2022/04/19 07:51:50;;;;;;;12.55;1.58;;;24.60;94.80;;;;;;5086119;28;20016;-57
2022/04/19 07:54:17;;;;;;;9.90;1.60;;;24.60;94.70;;;;;;5086062;28;20056;-60
2022/04/19 07:56:43;;;;;;;12.80;1.90;;;24.60;94.60;;;;;;5085876;28;20013;-54
2022/04/19 07:59:10;;;;;;;6.85;1.40;;;24.60;94.60;;;;;;5086239;28;20088;-58
2022/04/19 08:01:37;;;;;;;8.60;1.45;;;24.60;94.50;;;;;;5085901;28;20036;-54
2022/04/19 08:04:03;;;;;;;8.95;1.67;;;24.60;94.40;;;;;;5086002;28;20093;-63
2022/04/19 08:06:30;;;;;;;8.75;1.33;;;24.60;94.50;;;;;;5086037;28;20028;-53
2022/04/19 08:08:56;;;;;;;8.70;1.75;;;24.60;94.50;;;;;;5085825;28;20033;-56
2022/04/19 08:11:23;;;;;;;9.50;1.40;;;24.60;94.50;;;;;;5085475;28;20346;-54
2022/04/19 08:13:50;;;;;;;10.65;1.67;;;24.50;94.50;;;;;;5085950;28;20390;-54
2022/04/19 08:16:16;;;;;;;7.05;1.60;;;24.60;94.60;;;;;;5085877;28;20028;-56
2022/04/19 08:18:43;;;;;;;12.98;2.00;;;24.60;94.50;;;;;;5085640;28;20169;-53
2022/04/19 08:21:10;;;;;;;10.80;1.75;;;24.50;94.40;;;;;;5085809;28;20020;-58
2022/04/19 08:23:36;;;;;;;11.27;2.08;;;24.50;94.30;;;;;;5085432;28;20092;-53
2022/04/19 08:26:03;;;;;;;8.95;2.05;;;24.50;94.30;;;;;;5085797;28;20021;-53
2022/04/19 08:28:30;;;;;;;7.32;1.75;;;24.50;94.40;;;;;;5085356;28;20340;-56
2022/04/19 08:30:56;;;;;;;10.38;1.80;;;24.50;94.30;;;;;;5085239;28;20036;-61
2022/04/19 08:33:23;;;;;;;9.55;2.00;;;24.40;94.30;;;;;;5084988;28;20027;-56
2022/04/19 08:35:50;;;;;;;11.43;1.90;;;24.40;94.30;;;;;;5085297;28;20024;-54
2022/04/19 08:38:17;;;;;;;19.10;2.08;;;24.40;94.20;;;;;;5085402;28;20180;-57
2022/04/19 08:40:44;;;;;;;10.18;2.25;;;24.40;94.30;;;;;;5085318;28;20088;-55
2022/04/19 08:43:11;;;;;;;10.13;2.30;;;24.40;94.10;;;;;;5085025;28;20024;-58
2022/04/19 08:45:38;;;;;;;10.05;2.30;;;24.50;94.10;;;;;;5084877;28;20379;-54
2022/04/19 08:48:09;;;;;;;8.00;2.05;;;24.40;94.00;;;;;;5084812;28;20083;-59
2022/04/19 08:50:38;;;;;;;15.20;2.50;;;24.40;94.00;;;;;;5084836;28;20031;-58
2022/04/19 08:58:36;;;;;;;10.15;2.40;;;24.40;93.60;;;;;;5084913;28;20081;-56
2022/04/19 09:01:02;;;;;;;9.77;2.17;;;24.40;93.90;;;;;;5084881;28;20016;-58
2022/04/19 09:03:29;;;;;;;13.13;2.00;;;24.40;93.70;;;;;;5084964;28;20051;-56
2022/04/19 09:05:56;;;;;;;7.30;2.33;;;24.40;93.70;;;;;;5085004;28;20211;-55
2022/04/19 09:08:23;;;;;;;10.30;2.13;;;24.30;93.70;;;;;;5084498;28;20024;-54
2022/04/19 09:10:50;;;;;;;8.65;2.30;;;24.40;93.80;;;;;;5084463;28;20024;-55
2022/04/19 09:13:21;;;;;;;9.82;2.17;;;24.40;93.80;;;;;;5084770;28;20012;-55
2022/04/19 09:15:52;;;;;;;12.90;1.90;;;24.40;93.70;;;;;;5084892;28;20304;-60
2022/04/19 09:18:30;;;;;;;11.25;1.83;;;24.40;93.70;;;;;;5084452;28;20036;-55
2022/04/19 09:21:01;;;;;;;10.10;1.80;;;24.40;93.50;;;;;;5084471;28;20016;-53
2022/04/19 09:23:29;;;;;;;9.38;1.65;;;24.40;93.60;;;;;;5084573;28;20070;-53
2022/04/19 09:26:09;;;;;;;10.57;2.03;;;24.40;93.60;;;;;;5083969;28;20012;-52
2022/04/19 09:28:36;;;;;;;9.80;1.80;;;24.40;93.60;;;;;;5084300;28;20031;-59
2022/04/19 09:31:12;;;;;;;8.50;2.00;;;24.50;93.70;;;;;;5084197;28;20021;-56
2022/04/19 09:33:39;;;;;;;7.55;2.05;;;24.50;93.70;;;;;;5084232;28;20043;-56
2022/04/19 09:36:07;;;;;;;7.80;1.80;;;24.50;93.80;;;;;;5084355;28;20023;-55
2022/04/19 09:38:37;;;;;;;10.95;2.40;;;24.50;93.90;;;;;;5084031;28;20194;-59
2022/04/19 09:41:09;;;;;;;7.35;2.30;;;24.50;94.00;;;;;;5084308;28;20050;-55
2022/04/19 09:43:37;;;;;;;10.80;2.03;;;24.50;94.00;;;;;;5084266;28;20085;-59
2022/04/19 09:46:07;;;;;;;7.28;2.03;;;24.50;94.00;;;;;;5084024;28;20021;-58
2022/04/19 09:48:43;;;;;;;5.57;1.60;;;24.50;94.10;;;;;;5084145;28;20028;-58
2022/04/19 09:51:13;;;;;;;9.88;1.80;;;24.50;94.20;;;;;;5083897;28;20255;-54
2022/04/19 09:53:47;;;;;;;7.47;1.90;;;24.40;94.40;;;;;;5083722;28;20093;-58
2022/04/19 09:56:20;;;;;;;5.18;2.08;;;24.50;94.70;;;;;;5083885;28;20087;-54
2022/04/19 09:58:50;;;;;;;7.70;1.88;;;24.50;94.50;;;;;;5084128;28;20197;-61
2022/04/19 10:09:39;;;;;;;7.00;2.08;;;24.40;94.60;;;;;;5084174;28;20077;-66
2022/04/19 10:12:10;;;;;;;7.70;1.88;;;24.40;94.60;;;;;;5084099;28;20056;-52
2022/04/19 10:14:36;;;;;;;11.23;2.10;;;24.40;94.70;;;;;;5084863;28;20310;-58
2022/04/19 10:17:05;;;;;;;7.03;2.05;;;24.40;94.70;;;;;;5083790;28;20021;-54
2022/04/19 10:19:33;;;;;;;10.07;2.10;;;24.40;94.70;;;;;;5084138;28;20040;-55
2022/04/19 10:22:09;;;;;;;8.02;2.00;;;24.40;94.80;;;;;;5083722;28;20073;-59
2022/04/19 10:24:52;;;;;;;11.40;1.92;;;24.50;94.70;;;;;;5084195;28;20082;-57
2022/04/19 10:27:19;;;;;;;7.50;2.10;;;24.50;94.60;;;;;;5083950;28;20021;-55
2022/04/19 10:29:46;;;;;;;9.68;2.22;;;24.50;94.50;;;;;;5087136;28;20028;-57
2022/04/19 10:32:13;;;;;;;5.70;2.25;;;24.50;94.50;;;;;;5083743;28;20020;-53
2022/04/19 10:34:40;;;;;;;8.65;2.15;;;24.50;94.50;;;;;;5083705;28;20038;-54
2022/04/19 10:37:17;;;;;;;7.47;2.00;;;24.50;94.40;;;;;;5085410;28;20024;-60
2022/04/19 10:39:46;;;;;;;10.48;2.28;;;24.50;94.30;;;;;;5087930;28;20024;-58
2022/04/19 10:42:34;;;;;;;4.15;1.73;;;24.60;94.30;;;;;;5088398;28;20257;-58
2022/04/19 10:45:13;;;;;;;5.32;1.75;;;24.60;94.20;;;;;;5087470;28;20039;-52
2022/04/19 10:47:56;;;;;;;7.30;1.85;;;24.60;94.20;;;;;;5087397;28;20029;-56
2022/04/19 10:50:35;;;;;;;7.53;2.05;;;24.60;94.10;;;;;;5087467;28;20028;-55
2022/04/19 10:53:03;;;;;;;9.90;2.25;;;24.60;94.00;;;;;;5086840;28;20056;-55
2022/04/19 10:55:34;;;;;;;7.15;2.00;;;24.70;94.00;;;;;;5086634;28;20045;-54
2022/04/19 10:58:12;;;;;;;5.85;1.77;;;24.70;94.00;;;;;;5086924;28;20028;-52
2022/04/19 11:00:41;;;;;;;9.73;2.13;;;24.70;94.00;;;;;;5087122;28;20027;-59
2022/04/19 11:03:18;;;;;;;6.30;2.15;;;24.70;94.00;;;;;;5086672;28;20404;-56
2022/04/19 11:05:50;;;;;;;7.53;2.30;;;24.70;94.00;;;;;;5087024;28;20078;-54
2022/04/19 11:08:25;;;;;;;8.82;2.30;;;24.70;93.90;;;;;;5086615;28;20221;-54
2022/04/19 11:10:58;;;;;;;8.27;2.22;;;24.70;93.90;;;;;;5087913;28;20040;-55
2022/04/19 11:13:35;;;;;;;9.10;2.67;;;24.80;93.90;;;;;;5086626;28;20032;-56
2022/04/19 11:16:07;;;;;;;6.35;2.45;;;24.80;94.00;;;;;;5086653;28;20028;-54
2022/04/19 11:18:57;;;;;;;12.10;2.80;;;24.80;93.90;;;;;;5086580;28;20036;-54
2022/04/19 11:21:46;;;;;;;11.77;2.63;;;24.80;93.90;;;;;;5086515;28;20324;-56
2022/04/19 11:24:13;;;;;;;9.32;2.50;;;24.80;93.90;;;;;;5086752;28;20048;-55
2022/04/19 11:26:42;;;;;;;7.78;2.42;;;24.80;93.90;;;;;;5086391;28;20033;-53
2022/04/19 11:29:09;;;;;;;10.38;3.03;;;24.80;93.90;;;;;;5086591;28;20043;-57
2022/04/19 11:31:44;;;;;;;7.38;2.50;;;24.80;93.90;;;;;;5086235;28;20036;-54
2022/04/19 11:34:15;;;;;;;10.80;3.00;;;24.80;93.90;;;;;;5086444;28;20052;-53
2022/04/19 11:36:42;;;;;;;7.53;2.70;;;24.80;93.90;;;;;;5086189;28;20335;-61
2022/04/19 11:48:00;;;;;;;9.32;3.22;;;24.90;93.90;;;;;;5085717;28;20147;-54
2022/04/19 11:50:31;;;;;;;7.75;3.40;;;24.90;94.00;;;;;;5086369;28;20302;-55
2022/04/19 11:53:01;;;;;;;10.88;3.60;;;24.90;93.90;;;;;;5085945;28;20074;-54
2022/04/19 11:55:28;;;;;;;8.52;3.30;;;24.90;93.90;;;;;;5085531;28;20041;-60
2022/04/19 11:58:10;;;;;;;8.18;3.60;;;24.90;93.90;;;;;;5085786;28;20096;-58
2022/04/19 12:00:37;;;;;;;10.80;4.20;;;24.90;93.90;;;;;;5086310;28;20036;-58
2022/04/19 12:03:28;;;;;;;9.30;3.97;;;24.90;93.90;;;;;;5085519;28;20074;-53
2022/04/19 12:06:18;;;;;;;7.25;3.80;;;24.90;93.90;;;;;;5085777;28;20043;-53
2022/04/19 12:08:46;;;;;;;8.68;3.85;;;25.00;93.90;;;;;;5086112;28;20285;-56
2022/04/19 12:11:16;;;;;;;9.00;3.65;;;25.00;93.90;;;;;;5085819;28;20373;-58
2022/04/19 12:13:47;;;;;;;9.50;4.07;;;25.00;93.90;;;;;;5085645;28;20059;-53
2022/04/19 12:16:34;;;;;;;9.55;3.95;;;25.00;93.90;;;;;;5085705;28;20066;-58
2022/04/19 12:19:12;;;;;;;11.98;4.53;;;25.00;93.90;;;;;;5085862;28;20032;-59
2022/04/19 12:21:41;;;;;;;9.43;4.60;;;25.00;93.90;;;;;;5085429;28;20020;-58
2022/04/19 12:24:28;;;;;;;9.80;4.13;;;25.00;94.00;;;;;;5085512;28;20036;-55
2022/04/19 12:27:06;;;;;;;9.85;4.32;;;25.00;94.10;;;;;;5085250;28;20116;-57
2022/04/19 12:29:34;;;;;;;9.13;4.90;;;25.00;94.10;;;;;;5085573;28;20032;-55
2022/04/19 12:32:03;;;;;;;7.15;3.67;;;25.00;94.10;;;;;;5085604;28;20243;-59
2022/04/19 12:34:38;;;;;;;8.32;3.83;;;25.00;94.20;;;;;;5085226;28;20111;-59
2022/04/19 12:37:08;;;;;;;7.97;3.83;;;25.00;94.20;;;;;;5085261;28;20031;-58
2022/04/19 12:39:35;;;;;;;10.73;3.90;;;25.00;94.20;;;;;;5085263;28;20272;-60
2022/04/19 12:42:11;;;;;;;8.40;3.60;;;25.00;94.20;;;;;;5084964;28;20024;-53
2022/04/19 12:44:39;;;;;;;6.40;4.20;;;25.00;94.20;;;;;;5085154;28;20028;-55
2022/04/19 12:47:16;;;;;;;9.30;4.47;;;25.10;94.20;;;;;;5084773;28;20028;-59
2022/04/19 12:49:47;;;;;;;6.85;3.90;;;25.10;94.20;;;;;;5085249;28;20047;-53
2022/04/19 12:52:15;;;;;;;10.20;4.18;;;25.10;94.20;;;;;;5084745;28;20027;-53
2022/04/19 12:54:50;;;;;;;9.05;4.10;;;25.10;94.20;;;;;;5084516;28;20063;-55
2022/04/19 13:00:04;;;;;;;7.90;3.88;;;25.10;94.10;;;;;;5084367;28;20047;-53
2022/04/19 13:02:31;;;;;;;7.65;4.05;;;25.10;94.10;;;;;;5084552;28;20036;-56
2022/04/19 13:04:58;;;;;;;6.93;4.00;;;25.10;94.10;;;;;;5084805;28;20095;-53
2022/04/19 13:13:03;;;;;;;7.18;3.60;;;25.20;94.10;;;;;;5084418;28;20126;-57
2022/04/19 13:15:35;;;;;;;8.43;3.90;;;25.20;94.10;;;;;;5084266;28;20056;-53
2022/04/19 13:18:02;;;;;;;9.80;3.92;;;25.20;94.10;;;;;;5084332;28;20031;-58
2022/04/19 13:20:30;;;;;;;6.10;3.28;;;25.20;94.20;;;;;;5084329;28;20040;-55
2022/04/19 13:22:57;;;;;;;6.60;3.40;;;25.20;94.20;;;;;;5084575;28;20029;-53
2022/04/19 13:25:23;;;;;;;8.40;3.72;;;25.20;94.20;;;;;;5085122;28;20025;-54
2022/04/19 13:27:51;;;;;;;7.93;3.80;;;25.20;94.20;;;;;;5084211;28;20032;-53
2022/04/19 13:30:21;;;;;;;7.10;3.55;;;25.30;94.20;;;;;;5084452;28;20060;-61
2022/04/19 13:32:48;;;;;;;6.70;3.55;;;25.20;94.20;;;;;;5084385;28;20324;-57
2022/04/19 13:35:15;;;;;;;8.55;3.50;;;25.20;94.10;;;;;;5084505;28;20032;-53
2022/04/19 13:40:27;;;;;;;5.55;3.10;;;25.30;94.30;;;;;;5084605;28;20319;-54
2022/04/19 13:42:53;;;;;;;9.73;3.55;;;25.30;94.20;;;;;;5083982;28;20038;-57
2022/04/19 13:45:20;;;;;;;6.78;2.97;;;25.30;94.30;;;;;;5085598;28;20025;-56
2022/04/19 13:47:47;;;;;;;5.53;3.25;;;25.30;94.30;;;;;;5083841;28;20070;-53
2022/04/19 13:50:14;;;;;;;9.90;3.55;;;25.30;94.30;;;;;;5084311;28;20103;-52